Time;durP1;ratioP1;P1;durP2;ratioP2;P2;SDS_P1;SDS_P2;PMS_P1;PMS_P2;Temp;Humidity;BMP_temperature;BMP_pressure;BME280_temperature;BME280_humidity;BME280_pressure;Samples;Min_cycle;Max_cycle;Signal;HPM_P1;HPM_P2
2023/09/18 00:02:04;;;;;;;0.32;0.32;;;;;;;17.23;73.04;97205.16;5072154;28;20040;-65
2023/09/18 00:04:33;;;;;;;0.32;0.32;;;;;;;17.29;72.68;97207.94;5065100;28;20052;-65
2023/09/18 00:07:01;;;;;;;0.38;0.38;;;;;;;17.16;73.67;97203.69;5065279;28;20522;-65
2023/09/18 00:09:29;;;;;;;0.40;0.40;;;;;;;17.25;73.44;97204.91;5068234;28;20054;-66
2023/09/18 00:11:56;;;;;;;0.40;0.40;;;;;;;17.18;73.89;97204.28;5064469;28;20044;-66
2023/09/18 00:14:25;;;;;;;0.50;0.50;;;;;;;17.32;73.51;97199.38;5065141;28;20051;-66
2023/09/18 00:16:53;;;;;;;0.47;0.47;;;;;;;17.39;73.17;97190.03;5064088;28;20052;-66
2023/09/18 00:19:26;;;;;;;0.35;0.35;;;;;;;17.60;72.17;97194.66;5061885;28;20445;-66
2023/09/18 00:21:56;;;;;;;0.40;0.40;;;;;;;17.78;71.31;97187.34;5060556;28;20047;-66
2023/09/18 00:24:26;;;;;;;0.40;0.40;;;;;;;17.65;71.58;97187.72;5061748;28;20070;-66
2023/09/18 00:26:54;;;;;;;0.40;0.40;;;;;;;17.65;71.63;97183.13;5065703;28;20036;-66
2023/09/18 00:29:21;;;;;;;0.30;0.30;;;;;;;17.63;71.70;97185.28;5062342;28;20563;-66
2023/09/18 00:31:49;;;;;;;0.30;0.30;;;;;;;17.71;71.49;97175.91;5066328;28;20037;-66
2023/09/18 00:34:17;;;;;;;0.38;0.38;;;;;;;17.63;71.70;97171.78;5067714;28;20055;-66
2023/09/18 00:36:45;;;;;;;0.00;0.00;;;;;;;17.62;71.60;97164.72;5071107;28;20432;-66
2023/09/18 00:39:15;;;;;;;0.40;0.40;;;;;;;17.55;71.92;97161.34;5066575;28;20048;-66
2023/09/18 00:41:43;;;;;;;0.38;0.38;;;;;;;17.48;72.01;97147.25;5066016;28;20032;-66
2023/09/18 00:44:11;;;;;;;0.50;0.50;;;;;;;17.37;72.37;97143.59;5066883;28;20040;-66
2023/09/18 00:46:38;;;;;;;0.40;0.40;;;;;;;17.31;72.86;97135.69;5065698;28;20068;-65
2023/09/18 00:49:06;;;;;;;0.30;0.30;;;;;;;17.20;73.04;97134.72;5057733;28;20041;-66
2023/09/18 00:51:34;;;;;;;0.43;0.43;;;;;;;17.20;73.06;97130.13;5066099;28;20041;-66
2023/09/18 00:54:01;;;;;;;0.40;0.40;;;;;;;17.09;73.37;97128.34;5059188;28;20539;-66
2023/09/18 00:56:30;;;;;;;0.40;0.40;;;;;;;17.03;73.64;97129.34;5065878;28;20400;-65
2023/09/18 00:58:58;;;;;;;0.40;0.40;;;;;;;16.99;73.67;97119.31;5076336;28;20107;-65
2023/09/18 01:01:26;;;;;;;0.50;0.50;;;;;;;17.01;73.60;97114.50;5062539;28;20091;-65
2023/09/18 01:03:53;;;;;;;0.30;0.30;;;;;;;17.10;73.13;97113.81;5067145;28;20119;-66
2023/09/18 01:06:21;;;;;;;0.40;0.40;;;;;;;16.99;73.70;97122.81;5070797;28;20416;-66
2023/09/18 01:08:53;;;;;;;0.50;0.50;;;;;;;17.05;73.25;97123.69;5057560;28;20043;-66
2023/09/18 01:11:27;;;;;;;0.40;0.40;;;;;;;17.15;72.68;97111.19;5057513;28;20050;-66
2023/09/18 01:14:03;;;;;;;0.50;0.50;;;;;;;17.05;73.06;97105.63;5082745;28;20385;-66
2023/09/18 01:16:36;;;;;;;0.30;0.30;;;;;;;17.09;73.13;97103.28;5060461;28;20040;-66
2023/09/18 01:19:04;;;;;;;0.50;0.50;;;;;;;17.13;72.96;97099.03;5079141;28;20141;-66
2023/09/18 01:21:31;;;;;;;0.50;0.50;;;;;;;17.27;72.36;97102.16;5064069;28;20040;-66
2023/09/18 01:24:00;;;;;;;0.68;0.68;;;;;;;17.25;72.02;97095.13;5083491;28;20064;-66
2023/09/18 01:26:28;;;;;;;0.30;0.30;;;;;;;17.14;72.15;97089.84;5066726;28;20048;-66
2023/09/18 01:28:56;;;;;;;0.30;0.30;;;;;;;16.91;73.14;97088.19;5065092;28;20053;-66
2023/09/18 01:31:26;;;;;;;0.40;0.40;;;;;;;16.81;73.57;97090.75;5058722;28;20087;-66
2023/09/18 01:33:54;;;;;;;0.30;0.30;;;;;;;16.90;73.44;97085.75;5060485;28;20040;-66
2023/09/18 01:36:22;;;;;;;0.40;0.40;;;;;;;16.83;73.48;97080.50;5064905;28;20037;-66
2023/09/18 01:38:50;;;;;;;0.40;0.40;;;;;;;16.79;73.69;97074.00;5061858;28;20111;-66
2023/09/18 01:41:20;;;;;;;0.30;0.30;;;;;;;16.76;73.88;97071.78;5069773;28;20491;-66
2023/09/18 01:43:49;;;;;;;0.35;0.35;;;;;;;16.71;74.20;97077.09;5059933;28;20168;-66
2023/09/18 01:46:18;;;;;;;0.80;0.80;;;;;;;16.71;74.00;97071.72;5066423;28;20495;-66
2023/09/18 01:48:48;;;;;;;0.10;0.10;;;;;;;16.69;74.03;97065.75;5056128;28;20404;-66
2023/09/18 01:51:16;;;;;;;0.55;0.55;;;;;;;16.60;74.37;97073.41;5084304;28;20049;-66
2023/09/18 01:53:44;;;;;;;0.50;0.50;;;;;;;16.72;73.95;97062.53;5067243;28;20056;-66
2023/09/18 01:56:12;;;;;;;0.30;0.30;;;;;;;16.74;73.74;97063.94;5068826;28;20048;-66
2023/09/18 01:58:41;;;;;;;0.77;0.77;;;;;;;16.85;73.38;97056.81;5059732;28;20040;-65
2023/09/18 02:01:09;;;;;;;0.55;0.55;;;;;;;16.94;73.07;97049.94;5065933;28;20113;-66
2023/09/18 02:03:41;;;;;;;0.40;0.40;;;;;;;16.98;73.09;97050.25;5067515;28;20068;-65
2023/09/18 02:06:29;;;;;;;0.25;0.25;;;;;;;16.92;72.90;97059.34;5066109;28;20043;-66
2023/09/18 02:08:57;;;;;;;0.38;0.38;;;;;;;16.83;72.70;97053.53;5068332;28;20053;-66
2023/09/18 02:11:25;;;;;;;0.40;0.40;;;;;;;16.97;72.30;97054.00;5057137;28;20044;-65
2023/09/18 02:13:54;;;;;;;0.10;0.10;;;;;;;16.75;72.89;97054.78;5067231;28;20634;-66
2023/09/18 02:16:23;;;;;;;0.45;0.45;;;;;;;16.61;73.56;97042.66;5072582;28;20045;-66
2023/09/18 02:18:51;;;;;;;0.30;0.30;;;;;;;16.70;73.14;97048.50;5068380;28;20048;-66
2023/09/18 02:21:21;;;;;;;0.40;0.40;;;;;;;16.68;73.08;97051.47;5064702;28;20036;-66
2023/09/18 02:23:50;;;;;;;0.40;0.40;;;;;;;16.52;73.29;97041.47;5064959;28;20041;-65
2023/09/18 02:26:18;;;;;;;0.40;0.40;;;;;;;16.48;73.80;97040.34;5066712;28;20063;-66
2023/09/18 02:28:46;;;;;;;0.40;0.40;;;;;;;16.39;74.20;97039.13;5063251;28;20449;-65
2023/09/18 02:31:16;;;;;;;0.40;0.40;;;;;;;16.32;74.69;97036.56;5061828;28;20041;-65
2023/09/18 02:33:44;;;;;;;0.47;0.47;;;;;;;16.37;74.34;97033.16;5063136;28;20072;-65
2023/09/18 02:36:12;;;;;;;0.40;0.40;;;;;;;16.53;73.87;97035.81;5063665;28;20492;-66
2023/09/18 02:38:39;;;;;;;0.38;0.38;;;;;;;16.42;74.16;97033.22;5063137;28;20041;-65
2023/09/18 02:41:07;;;;;;;0.50;0.50;;;;;;;16.58;73.43;97039.69;5066783;28;20068;-66
2023/09/18 02:43:35;;;;;;;0.30;0.30;;;;;;;16.27;74.38;97033.81;5063849;28;20039;-65
2023/09/18 02:46:03;;;;;;;0.50;0.50;;;;;;;16.22;74.65;97033.72;5068155;28;20042;-66
2023/09/18 02:48:32;;;;;;;0.43;0.43;;;;;;;16.26;74.69;97037.56;5069155;28;20059;-65
2023/09/18 02:51:00;;;;;;;0.40;0.40;;;;;;;16.23;74.94;97029.13;5058551;28;20064;-66
2023/09/18 02:53:30;;;;;;;0.40;0.40;;;;;;;16.33;74.63;97026.59;5062816;28;20045;-64
2023/09/18 02:55:59;;;;;;;0.30;0.30;;;;;;;16.42;73.96;97025.13;5066406;28;20041;-66
2023/09/18 02:58:29;;;;;;;0.30;0.30;;;;;;;16.46;73.65;97027.09;5059920;28;20049;-65
2023/09/18 03:00:58;;;;;;;0.52;0.52;;;;;;;16.44;73.41;97025.72;5060839;28;20040;-66
2023/09/18 03:03:27;;;;;;;0.38;0.38;;;;;;;16.52;72.95;97023.41;5062188;28;20044;-65
2023/09/18 03:06:01;;;;;;;0.30;0.30;;;;;;;16.42;73.04;97028.66;5081199;28;20093;-65
2023/09/18 03:08:29;;;;;;;0.52;0.52;;;;;;;16.51;72.63;97020.97;5068481;28;20068;-65
2023/09/18 03:10:58;;;;;;;0.50;0.50;;;;;;;16.78;71.71;97021.97;5062047;28;20037;-66
2023/09/18 03:13:27;;;;;;;0.40;0.40;;;;;;;16.61;72.12;97018.41;5067158;28;20131;-65
2023/09/18 03:15:56;;;;;;;0.52;0.52;;;;;;;16.54;72.39;97015.09;5083195;28;20052;-65
2023/09/18 03:18:25;;;;;;;0.00;0.00;;;;;;;16.55;72.16;97011.34;5059328;28;20468;-65
2023/09/18 03:20:52;;;;;;;0.40;0.40;;;;;;;16.63;71.80;97010.13;5081349;28;20068;-64
2023/09/18 03:23:22;;;;;;;0.43;0.43;;;;;;;16.72;71.15;97020.22;5070803;28;20048;-65
2023/09/18 03:25:50;;;;;;;0.35;0.35;;;;;;;16.73;71.13;97018.34;5084442;28;20044;-65
2023/09/18 03:28:20;;;;;;;0.40;0.40;;;;;;;16.72;71.18;97014.84;5085870;28;20082;-65
2023/09/18 03:30:50;;;;;;;0.35;0.35;;;;;;;16.72;71.04;97014.03;5069248;28;20040;-66
2023/09/18 03:33:21;;;;;;;0.40;0.40;;;;;;;16.79;70.78;97009.28;5088823;28;20044;-66
2023/09/18 03:35:49;;;;;;;0.30;0.30;;;;;;;16.80;70.60;96992.06;5086995;28;20097;-66
2023/09/18 03:38:22;;;;;;;0.45;0.45;;;;;;;16.82;70.57;96984.50;5070136;28;20040;-66
2023/09/18 03:40:50;;;;;;;0.50;0.50;;;;;;;16.81;70.52;96972.94;5071190;28;20049;-66
2023/09/18 03:43:18;;;;;;;0.10;0.10;;;;;;;16.90;70.46;96972.50;5088907;28;20490;-66
2023/09/18 03:45:48;;;;;;;0.52;0.52;;;;;;;16.96;70.13;96961.53;5070200;28;20040;-66
2023/09/18 03:48:15;;;;;;;0.40;0.40;;;;;;;16.90;70.07;96957.16;5089408;28;20045;-66
2023/09/18 03:50:43;;;;;;;0.40;0.40;;;;;;;16.99;70.06;96957.53;5064603;28;20040;-66
2023/09/18 03:53:11;;;;;;;0.30;0.30;;;;;;;16.95;69.92;96948.28;5063992;28;20567;-66
2023/09/18 03:55:40;;;;;;;0.35;0.35;;;;;;;17.01;70.08;96953.50;5069758;28;20047;-66
2023/09/18 03:58:08;;;;;;;0.40;0.40;;;;;;;16.91;70.20;96950.69;5069205;28;20048;-66
2023/09/18 04:00:36;;;;;;;0.40;0.40;;;;;;;16.97;70.23;96943.47;5063923;28;20060;-66
2023/09/18 04:03:04;;;;;;;0.43;0.43;;;;;;;16.64;71.17;96937.13;5064418;28;20040;-66
2023/09/18 04:05:32;;;;;;;0.50;0.50;;;;;;;16.64;70.95;96942.50;5066674;28;20048;-66
2023/09/18 04:08:00;;;;;;;0.40;0.40;;;;;;;16.72;70.87;96935.88;5066562;28;20396;-66
2023/09/18 04:10:27;;;;;;;0.40;0.35;;;;;;;16.58;71.23;96929.19;5065126;28;20112;-66
2023/09/18 04:12:56;;;;;;;0.30;0.30;;;;;;;16.49;71.38;96926.94;5068289;28;20049;-65
2023/09/18 04:15:25;;;;;;;0.60;0.60;;;;;;;16.53;71.11;96917.28;5069953;28;20044;-66
2023/09/18 04:17:53;;;;;;;0.08;0.08;;;;;;;16.61;70.91;96918.72;5068945;28;20454;-65
2023/09/18 04:20:20;;;;;;;0.57;0.57;;;;;;;16.64;70.86;96920.13;5060048;28;20049;-65
2023/09/18 04:22:49;;;;;;;0.30;0.30;;;;;;;16.58;71.27;96919.25;5083510;28;20059;-65
2023/09/18 04:25:18;;;;;;;0.10;0.10;;;;;;;16.63;70.82;96913.94;5070382;28;20454;-65
2023/09/18 04:27:46;;;;;;;0.30;0.30;;;;;;;16.72;70.72;96914.31;5084702;28;20450;-66
2023/09/18 04:30:18;;;;;;;0.10;0.10;;;;;;;16.73;70.49;96902.47;5068235;28;20475;-67
2023/09/18 04:32:46;;;;;;;0.40;0.40;;;;;;;16.67;70.75;96898.91;5066268;28;20040;-68
2023/09/18 04:35:13;;;;;;;0.40;0.40;;;;;;;16.68;70.72;96897.84;5069630;28;20033;-69
2023/09/18 04:37:41;;;;;;;0.40;0.40;;;;;;;16.66;70.78;96889.19;5069196;28;20052;-68
2023/09/18 04:40:11;;;;;;;0.60;0.60;;;;;;;16.67;70.65;96888.13;5068946;28;20040;-68
2023/09/18 04:42:40;;;;;;;0.63;0.63;;;;;;;16.74;70.61;96894.13;5059171;28;20037;-67
2023/09/18 04:45:09;;;;;;;0.30;0.30;;;;;;;16.73;70.87;96886.28;5070043;28;20628;-68
2023/09/18 04:47:38;;;;;;;0.30;0.30;;;;;;;16.74;70.70;96886.03;5071003;28;20049;-68
2023/09/18 04:50:09;;;;;;;0.50;0.50;;;;;;;16.80;70.44;96884.25;5067919;28;20159;-68
2023/09/18 04:52:42;;;;;;;0.38;0.38;;;;;;;16.86;70.19;96884.03;5085510;28;20044;-68
2023/09/18 04:55:11;;;;;;;0.43;0.43;;;;;;;16.84;70.42;96882.66;5067973;28;20051;-68
2023/09/18 04:57:39;;;;;;;0.43;0.43;;;;;;;16.85;70.59;96890.50;5069747;28;20033;-67
2023/09/18 05:00:08;;;;;;;0.40;0.40;;;;;;;16.89;70.22;96896.22;5059410;28;20104;-68
2023/09/18 05:02:46;;;;;;;0.30;0.30;;;;;;;16.86;70.40;96889.44;5085494;28;20037;-67
2023/09/18 05:05:14;;;;;;;0.40;0.40;;;;;;;16.89;70.57;96885.44;5063125;28;20080;-68
2023/09/18 05:07:43;;;;;;;0.43;0.43;;;;;;;16.89;70.54;96880.03;5066262;28;20071;-68
2023/09/18 05:10:10;;;;;;;0.40;0.40;;;;;;;16.86;70.80;96892.13;5064508;28;20059;-67
2023/09/18 05:12:39;;;;;;;0.40;0.40;;;;;;;16.86;71.12;96899.41;5063641;28;20045;-68
2023/09/18 05:15:09;;;;;;;0.57;0.57;;;;;;;16.89;70.72;96885.44;5059305;28;20032;-67
2023/09/18 05:17:43;;;;;;;0.40;0.40;;;;;;;16.93;70.80;96886.53;5071105;28;20041;-68
2023/09/18 05:20:15;;;;;;;0.40;0.40;;;;;;;16.91;70.77;96888.69;5061138;28;20067;-67
2023/09/18 05:22:43;;;;;;;0.50;0.50;;;;;;;16.92;70.79;96878.72;5055683;28;20068;-67
2023/09/18 05:25:11;;;;;;;0.40;0.40;;;;;;;17.07;70.43;96890.47;5060792;28;20051;-67
2023/09/18 05:27:43;;;;;;;0.50;0.50;;;;;;;17.05;70.50;96889.09;5068043;28;20120;-67
2023/09/18 05:30:15;;;;;;;;;;;;;;;17.08;70.12;96886.72;5054407;28;20099;-67
2023/09/18 05:32:43;;;;;;;0.30;0.30;;;;;;;17.12;70.53;96884.34;5060159;28;20016;-68
2023/09/18 05:35:12;;;;;;;0.40;0.40;;;;;;;17.15;70.52;96889.19;5062631;28;20052;-68
2023/09/18 05:37:41;;;;;;;0.30;0.30;;;;;;;17.16;70.42;96888.94;5065820;28;20499;-67
2023/09/18 05:40:11;;;;;;;0.30;0.30;;;;;;;17.26;70.34;96874.75;5061051;28;20040;-67
2023/09/18 05:42:39;;;;;;;0.45;0.45;;;;;;;17.33;70.08;96858.38;5059817;28;20111;-67
2023/09/18 05:45:07;;;;;;;0.30;0.30;;;;;;;17.36;69.97;96860.53;5066683;28;20044;-68
2023/09/18 05:47:36;;;;;;;0.30;0.30;;;;;;;17.42;69.66;96859.53;5064678;28;20051;-68
2023/09/18 05:50:06;;;;;;;0.40;0.40;;;;;;;17.49;69.73;96866.34;5063486;28;20064;-68
2023/09/18 05:52:35;;;;;;;0.47;0.47;;;;;;;17.58;69.29;96848.63;5058785;28;20123;-68
2023/09/18 05:55:04;;;;;;;0.40;0.40;;;;;;;17.63;69.25;96849.78;5070431;28;20131;-68
2023/09/18 05:57:32;;;;;;;0.50;0.50;;;;;;;17.61;69.15;96831.91;5067708;28;20055;-68
2023/09/18 06:00:00;;;;;;;0.50;0.50;;;;;;;17.73;69.21;96820.97;5064740;28;20051;-68
2023/09/18 06:02:38;;;;;;;0.57;0.57;;;;;;;17.80;68.78;96815.34;5066259;28;20041;-67
2023/09/18 06:05:07;;;;;;;0.40;0.40;;;;;;;17.90;68.22;96827.03;5064790;28;20067;-67
2023/09/18 06:07:36;;;;;;;0.52;0.52;;;;;;;17.97;68.53;96827.59;5064769;28;20090;-68
2023/09/18 06:10:04;;;;;;;0.45;0.45;;;;;;;18.05;68.32;96828.19;5058426;28;20047;-68
2023/09/18 06:12:31;;;;;;;0.30;0.30;;;;;;;18.15;67.89;96822.84;5059783;28;20040;-68
2023/09/18 06:14:59;;;;;;;0.52;0.52;;;;;;;18.21;67.80;96822.63;5059790;28;20040;-68
2023/09/18 06:17:27;;;;;;;0.40;0.40;;;;;;;18.26;67.70;96813.72;5068442;28;20052;-67
2023/09/18 06:19:55;;;;;;;0.43;0.43;;;;;;;18.32;67.80;96823.47;5063763;28;20036;-67
2023/09/18 06:22:23;;;;;;;0.40;0.40;;;;;;;18.39;67.42;96824.03;5061645;28;20048;-68
2023/09/18 06:24:52;;;;;;;0.40;0.40;;;;;;;18.43;67.55;96825.16;5065987;28;20039;-67
2023/09/18 06:27:19;;;;;;;0.50;0.50;;;;;;;18.50;67.43;96819.50;5062764;28;20048;-68
2023/09/18 06:29:47;;;;;;;0.47;0.47;;;;;;;18.54;67.28;96816.00;5058103;28;20070;-68
2023/09/18 06:32:14;;;;;;;0.43;0.43;;;;;;;18.61;67.11;96816.59;5067172;28;20052;-68
2023/09/18 06:34:44;;;;;;;0.30;0.30;;;;;;;18.70;66.49;96806.91;5060274;28;20037;-68
2023/09/18 06:37:12;;;;;;;0.40;0.40;;;;;;;18.83;66.11;96810.19;5070114;28;20131;-68
2023/09/18 06:39:40;;;;;;;0.40;0.40;;;;;;;18.93;65.92;96826.44;5059559;28;20048;-68
2023/09/18 06:42:10;;;;;;;0.10;0.10;;;;;;;19.08;65.38;96821.06;5063693;28;20441;-68
2023/09/18 06:44:38;;;;;;;0.30;0.30;;;;;;;19.19;65.15;96828.13;5069389;28;20040;-67
2023/09/18 06:47:06;;;;;;;0.47;0.47;;;;;;;19.26;65.04;96823.25;5067754;28;20064;-68
2023/09/18 06:49:34;;;;;;;0.38;0.38;;;;;;;19.36;64.69;96834.09;5057261;28;20037;-68
2023/09/18 06:52:02;;;;;;;0.35;0.35;;;;;;;19.48;64.24;96847.41;5060691;28;20119;-68
2023/09/18 06:54:33;;;;;;;0.22;0.22;;;;;;;19.55;63.87;96855.25;5067869;28;20044;-67
2023/09/18 06:57:01;;;;;;;0.10;0.10;;;;;;;19.61;63.39;96843.34;5063833;28;20803;-68
2023/09/18 06:59:30;;;;;;;0.40;0.40;;;;;;;19.75;63.15;96866.09;5066261;28;20131;-68
2023/09/18 07:01:59;;;;;;;0.30;0.30;;;;;;;19.87;63.05;96871.22;5065607;28;20044;-68
2023/09/18 07:04:27;;;;;;;0.40;0.40;;;;;;;19.97;62.28;96866.63;5065923;28;20050;-67
2023/09/18 07:06:56;;;;;;;0.50;0.50;;;;;;;20.02;62.54;96861.22;5057093;28;20512;-68
2023/09/18 07:09:25;;;;;;;0.22;0.22;;;;;;;20.05;62.64;96863.34;5057076;28;20045;-68
2023/09/18 07:11:53;;;;;;;0.40;0.40;;;;;;;20.12;62.49;96858.50;5058253;28;20543;-67
2023/09/18 07:14:21;;;;;;;0.28;0.28;;;;;;;20.15;62.03;96852.50;5059817;28;20045;-68
2023/09/18 07:16:50;;;;;;;0.20;0.08;;;;;;;20.23;62.42;96862.00;5067074;28;20459;-68
2023/09/18 07:19:18;;;;;;;0.35;0.35;;;;;;;20.28;62.41;96858.44;5070423;28;20475;-68
2023/09/18 07:21:45;;;;;;;0.38;0.38;;;;;;;20.30;61.73;96856.28;5057666;28;20041;-68
2023/09/18 07:24:16;;;;;;;0.35;0.35;;;;;;;20.40;61.85;96859.00;5067191;28;20098;-68
2023/09/18 07:26:46;;;;;;;0.30;0.30;;;;;;;20.45;60.98;96864.41;5064558;28;20044;-68
2023/09/18 07:29:14;;;;;;;0.38;0.38;;;;;;;20.52;61.00;96862.22;5051752;28;20041;-68
2023/09/18 07:31:43;;;;;;;0.32;0.32;;;;;;;20.59;60.49;96860.00;5060195;28;20068;-68
2023/09/18 07:34:12;;;;;;;0.30;0.30;;;;;;;20.65;60.28;96848.06;5063330;28;20045;-67
2023/09/18 07:36:41;;;;;;;0.30;0.30;;;;;;;20.69;60.61;96851.03;5063796;28;20045;-68
2023/09/18 07:39:08;;;;;;;0.32;0.32;;;;;;;20.80;60.47;96871.59;5065396;28;20037;-68
2023/09/18 07:41:36;;;;;;;0.20;0.20;;;;;;;20.89;59.83;96873.47;5060606;28;20041;-68
2023/09/18 07:44:04;;;;;;;0.30;0.30;;;;;;;20.98;59.56;96868.25;5069142;28;20071;-68
2023/09/18 07:46:32;;;;;;;0.30;0.30;;;;;;;21.09;58.80;96869.00;5064390;28;20048;-68
2023/09/18 07:48:59;;;;;;;0.30;0.30;;;;;;;21.12;58.42;96869.28;5059292;28;20059;-68
2023/09/18 07:51:30;;;;;;;0.20;0.20;;;;;;;21.13;58.85;96870.91;5068824;28;20420;-68
2023/09/18 07:53:57;;;;;;;0.40;0.40;;;;;;;21.11;58.44;96870.38;5066910;28;20049;-68
2023/09/18 07:56:25;;;;;;;0.32;0.32;;;;;;;21.10;58.60;96878.78;5064237;28;20055;-68
2023/09/18 07:58:53;;;;;;;0.20;0.20;;;;;;;21.12;58.66;96876.59;5067677;28;20049;-68
2023/09/18 08:01:22;;;;;;;0.38;0.38;;;;;;;21.13;58.99;96872.81;5068653;28;20048;-68
2023/09/18 08:03:50;;;;;;;0.30;0.30;;;;;;;21.14;58.39;96874.44;5055022;28;20052;-68
2023/09/18 08:06:19;;;;;;;0.35;0.35;;;;;;;21.17;58.57;96877.41;5071345;28;20048;-68
2023/09/18 08:08:48;;;;;;;0.30;0.30;;;;;;;21.20;58.38;96887.72;5058277;28;20642;-68
2023/09/18 08:11:16;;;;;;;0.10;0.10;;;;;;;21.26;58.70;96887.69;5072449;28;20448;-68
2023/09/18 08:13:43;;;;;;;0.38;0.38;;;;;;;21.30;58.89;96900.41;5066670;28;20044;-68
2023/09/18 08:16:12;;;;;;;0.40;0.40;;;;;;;21.33;58.56;96891.72;5066116;28;20066;-68
2023/09/18 08:18:41;;;;;;;0.40;0.40;;;;;;;21.37;58.82;96897.41;5070132;28;20124;-68
2023/09/18 08:21:10;;;;;;;0.50;0.50;;;;;;;21.47;58.62;96894.63;5069332;28;20837;-68
2023/09/18 08:23:38;;;;;;;0.40;0.40;;;;;;;21.57;58.61;96889.94;5067953;28;20053;-68
2023/09/18 08:26:07;;;;;;;0.30;0.30;;;;;;;21.67;58.59;96878.19;5061217;28;20119;-69
2023/09/18 08:28:38;;;;;;;0.32;0.32;;;;;;;21.78;57.74;96877.03;5071268;28;20076;-68
2023/09/18 08:31:06;;;;;;;0.22;0.22;;;;;;;21.87;57.49;96872.59;5072294;28;20515;-69
2023/09/18 08:33:34;;;;;;;0.22;0.22;;;;;;;21.93;57.71;96862.47;5060935;28;20124;-69
2023/09/18 08:36:02;;;;;;;0.40;0.40;;;;;;;21.97;57.44;96860.84;5055044;28;20123;-69
2023/09/18 08:38:29;;;;;;;0.30;0.30;;;;;;;22.01;57.51;96863.84;5066105;28;20036;-68
2023/09/18 08:40:58;;;;;;;0.20;0.20;;;;;;;22.00;57.38;96857.59;5065008;28;20085;-68
2023/09/18 08:43:28;;;;;;;0.28;0.28;;;;;;;22.03;57.69;96859.72;5064508;28;20495;-69
2023/09/18 08:46:00;;;;;;;0.25;0.25;;;;;;;22.04;57.68;96861.34;5069587;28;20047;-68
2023/09/18 08:48:34;;;;;;;0.38;0.38;;;;;;;22.01;57.22;96855.69;5072238;28;20067;-68
2023/09/18 08:51:03;;;;;;;0.30;0.30;;;;;;;22.00;57.54;96854.88;5071351;28;20048;-68
2023/09/18 08:53:32;;;;;;;0.30;0.30;;;;;;;21.97;57.41;96852.69;5060513;28;20045;-68
2023/09/18 08:56:01;;;;;;;0.30;0.30;;;;;;;22.00;57.66;96846.72;5060803;28;20444;-69
2023/09/18 08:58:33;;;;;;;0.30;0.30;;;;;;;22.00;57.72;96844.00;5063091;28;20048;-69
2023/09/18 09:01:03;;;;;;;0.30;0.30;;;;;;;21.99;57.43;96857.88;5068598;28;20075;-68
2023/09/18 09:03:31;;;;;;;0.30;0.30;;;;;;;22.02;57.76;96862.72;5069941;28;20067;-68
2023/09/18 09:06:00;;;;;;;0.35;0.35;;;;;;;22.06;58.03;96851.00;5067170;28;20043;-68
2023/09/18 09:08:29;;;;;;;0.30;0.30;;;;;;;22.13;57.81;96837.84;5070549;28;20044;-69
2023/09/18 09:10:57;;;;;;;0.30;0.30;;;;;;;22.22;57.76;96847.00;5066306;28;20133;-68
2023/09/18 09:13:26;;;;;;;0.43;0.43;;;;;;;22.34;57.17;96817.50;5067936;28;20044;-69
2023/09/18 09:16:11;;;;;;;0.22;0.22;;;;;;;22.54;56.43;96827.34;5064756;28;20891;-69
2023/09/18 09:18:49;;;;;;;0.20;0.20;;;;;;;22.66;56.43;96835.09;5065573;28;20049;-68
2023/09/18 09:21:17;;;;;;;0.30;0.30;;;;;;;22.76;56.51;96832.28;5064944;28;20571;-69
2023/09/18 09:23:51;;;;;;;0.20;0.20;;;;;;;22.82;56.24;96839.31;5064952;28;20040;-68
2023/09/18 09:26:21;;;;;;;0.00;0.00;;;;;;;22.90;55.97;96840.56;5070951;28;20399;-69
2023/09/18 09:28:49;;;;;;;0.20;0.20;;;;;;;23.05;55.46;96837.63;5063445;28;20059;-69
2023/09/18 09:31:28;;;;;;;0.20;0.20;;;;;;;23.18;55.26;96844.25;5064417;28;20041;-69
2023/09/18 09:33:57;;;;;;;0.20;0.20;;;;;;;23.23;54.99;96836.03;5070171;28;20373;-69
2023/09/18 09:36:25;;;;;;;0.22;0.22;;;;;;;23.27;54.39;96831.59;5067756;28;20690;-70
2023/09/18 09:38:55;;;;;;;0.40;0.40;;;;;;;23.31;54.89;96819.84;5063017;28;20041;-69
2023/09/18 09:41:23;;;;;;;0.20;0.20;;;;;;;23.29;54.55;96830.22;5062881;28;20043;-69
2023/09/18 09:43:51;;;;;;;0.22;0.22;;;;;;;23.37;55.18;96836.91;5067786;28;20044;-69
2023/09/18 09:46:21;;;;;;;0.20;0.20;;;;;;;23.51;54.72;96832.38;5064285;28;20048;-69
2023/09/18 09:49:01;;;;;;;0.00;0.00;;;;;;;23.66;53.91;96831.31;5064857;28;20463;-69
2023/09/18 09:51:29;;;;;;;0.28;0.28;;;;;;;23.82;54.39;96826.41;5070710;28;20098;-69
2023/09/18 09:53:58;;;;;;;0.20;0.20;;;;;;;23.99;53.23;96830.19;5068159;28;20037;-69
2023/09/18 09:56:41;;;;;;;0.25;0.25;;;;;;;24.06;52.42;96813.47;5069688;28;20076;-69
2023/09/18 09:59:11;;;;;;;0.30;0.30;;;;;;;24.13;52.86;96825.59;5067725;28;20083;-69
2023/09/18 10:01:41;;;;;;;0.38;0.38;;;;;;;24.23;52.50;96816.44;5064931;28;20049;-66
2023/09/18 10:04:13;;;;;;;0.20;0.20;;;;;;;24.31;51.89;96821.19;5068049;28;20040;-69
2023/09/18 10:06:41;;;;;;;;;;;;;;;24.42;51.20;96802.72;5066603;28;20505;-67
2023/09/18 10:09:10;;;;;;;0.20;0.20;;;;;;;24.52;51.90;96811.50;5065980;28;19920;-67
2023/09/18 10:11:44;;;;;;;0.20;0.20;;;;;;;24.66;51.42;96813.44;5064814;28;20044;-67
2023/09/18 10:14:16;;;;;;;0.30;0.30;;;;;;;24.86;51.10;96804.81;5063952;28;20052;-67
2023/09/18 10:16:47;;;;;;;0.30;0.30;;;;;;;24.91;50.06;96809.38;5070146;28;20044;-67
2023/09/18 10:19:23;;;;;;;0.22;0.22;;;;;;;25.12;49.40;96800.47;5062929;28;20045;-67
2023/09/18 10:22:00;;;;;;;0.30;0.30;;;;;;;25.21;48.74;96812.25;5065562;28;20048;-67
2023/09/18 10:24:30;;;;;;;0.13;0.13;;;;;;;25.20;48.28;96797.00;5061166;28;20500;-67
2023/09/18 10:27:00;;;;;;;0.30;0.30;;;;;;;25.42;48.04;96811.81;5062397;28;20507;-67
2023/09/18 10:29:29;;;;;;;0.00;0.00;;;;;;;25.63;47.58;96810.22;5059407;28;20403;-67
2023/09/18 10:31:57;;;;;;;0.20;0.20;;;;;;;25.86;46.51;96809.06;5064322;28;20125;-67
2023/09/18 10:34:27;;;;;;;0.17;0.17;;;;;;;25.96;46.34;96800.59;5067798;28;20101;-67
2023/09/18 10:36:55;;;;;;;0.30;0.30;;;;;;;26.08;45.87;96799.22;5064571;28;20066;-67
2023/09/18 10:39:25;;;;;;;0.10;0.10;;;;;;;26.06;45.54;96799.53;5064731;28;20044;-67
2023/09/18 10:41:53;;;;;;;0.30;0.30;;;;;;;26.19;45.87;96792.38;5066842;28;20115;-67
2023/09/18 10:44:21;;;;;;;0.10;0.10;;;;;;;26.28;45.34;96788.56;5063825;28;20124;-67
2023/09/18 10:46:51;;;;;;;0.10;0.10;;;;;;;26.45;44.59;96796.06;5069373;28;20488;-67
2023/09/18 10:49:19;;;;;;;0.00;0.00;;;;;;;26.63;42.66;96788.72;5058634;28;20480;-67
2023/09/18 10:51:49;;;;;;;0.00;0.00;;;;;;;26.81;42.56;96800.50;5067424;28;20554;-68
2023/09/18 10:54:20;;;;;;;0.10;0.10;;;;;;;26.94;40.89;96796.88;5057452;28;20056;-68
2023/09/18 10:56:48;;;;;;;0.30;0.30;;;;;;;26.79;41.39;96806.31;5059235;28;20066;-69
2023/09/18 10:59:17;;;;;;;0.10;0.10;;;;;;;26.89;41.02;96799.75;5064914;28;20476;-69
2023/09/18 11:01:47;;;;;;;0.30;0.30;;;;;;;27.00;40.91;96806.53;5066852;28;20045;-68
2023/09/18 11:04:19;;;;;;;0.00;0.00;;;;;;;27.25;40.85;96804.97;5062633;28;20415;-68
2023/09/18 11:07:08;;;;;;;0.00;0.00;;;;;;;27.10;40.55;96789.00;5066997;28;20467;-69
2023/09/18 11:09:43;;;;;;;0.22;0.22;;;;;;;27.00;40.31;96798.31;5059369;28;20043;-68
2023/09/18 11:12:12;;;;;;;0.15;0.15;;;;;;;26.52;40.94;96795.59;5061975;28;20036;-68
2023/09/18 11:14:48;;;;;;;0.20;0.20;;;;;;;26.38;41.67;96803.91;5065879;28;20116;-69
2023/09/18 11:17:30;;;;;;;0.10;0.10;;;;;;;26.26;42.18;96803.69;5064712;28;20471;-69
2023/09/18 11:20:11;;;;;;;0.20;0.20;;;;;;;26.17;42.87;96817.31;5054855;28;20057;-69
2023/09/18 11:22:47;;;;;;;0.10;0.10;;;;;;;26.00;43.93;96817.22;5057142;28;20041;-68
2023/09/18 11:25:38;;;;;;;0.17;0.17;;;;;;;25.95;44.10;96818.16;5058473;28;20055;-68
2023/09/18 11:28:08;;;;;;;0.13;0.13;;;;;;;25.92;43.80;96818.78;5060199;28;20120;-69
2023/09/18 11:30:36;;;;;;;0.10;0.10;;;;;;;25.85;44.51;96828.56;5063289;28;20068;-69
2023/09/18 11:33:05;;;;;;;0.10;0.10;;;;;;;25.72;44.99;96832.16;5059171;28;20120;-69
2023/09/18 11:35:33;;;;;;;0.10;0.10;;;;;;;25.55;45.14;96838.25;5064330;28;20090;-69
2023/09/18 11:38:06;;;;;;;0.00;0.00;;;;;;;25.33;45.69;96843.72;5066381;28;20412;-69
2023/09/18 11:40:38;;;;;;;0.20;0.20;;;;;;;25.24;46.40;96849.06;5069026;28;20086;-68
2023/09/18 11:43:25;;;;;;;0.30;0.30;;;;;;;25.07;46.31;96846.19;5070741;28;20037;-69
2023/09/18 11:45:55;;;;;;;0.13;0.13;;;;;;;24.93;46.82;96851.66;5070536;28;20033;-69